sensor_id;sensor_type;location;lat;lon;timestamp;pressure;altitude;pressure_sealevel;temperature;humidity
79331;BME280;68797;49.782;19.054;2023-12-20T00:01:07;96725.94;;;7.25;46.01
79331;BME280;68797;49.782;19.054;2023-12-20T00:03:43;96721.38;;;7.32;43.01
79331;BME280;68797;49.782;19.054;2023-12-20T00:06:11;96719.53;;;7.36;44.75
79331;BME280;68797;49.782;19.054;2023-12-20T00:08:40;96706.13;;;7.42;43.23
79331;BME280;68797;49.782;19.054;2023-12-20T00:11:06;96688.06;;;7.28;44.08
79331;BME280;68797;49.782;19.054;2023-12-20T00:13:37;96688.06;;;7.28;44.80
79331;BME280;68797;49.782;19.054;2023-12-20T00:16:04;96682.09;;;7.21;45.23
79331;BME280;68797;49.782;19.054;2023-12-20T00:18:35;96681.34;;;7.16;46.32
79331;BME280;68797;49.782;19.054;2023-12-20T00:21:01;96690.88;;;7.22;44.00
79331;BME280;68797;49.782;19.054;2023-12-20T00:23:30;96676.84;;;7.20;44.74
79331;BME280;68797;49.782;19.054;2023-12-20T00:25:56;96683.78;;;7.24;45.70
79331;BME280;68797;49.782;19.054;2023-12-20T00:28:23;96669.97;;;7.45;43.44
79331;BME280;68797;49.782;19.054;2023-12-20T00:30:50;96670.03;;;7.44;43.77
79331;BME280;68797;49.782;19.054;2023-12-20T00:33:19;96678.47;;;7.25;45.60
79331;BME280;68797;49.782;19.054;2023-12-20T00:35:45;96666.84;;;7.31;43.91
79331;BME280;68797;49.782;19.054;2023-12-20T00:38:14;96665.09;;;7.32;44.36
79331;BME280;68797;49.782;19.054;2023-12-20T00:40:41;96672.31;;;7.25;46.08
79331;BME280;68797;49.782;19.054;2023-12-20T00:43:09;96681.97;;;7.26;46.31
79331;BME280;68797;49.782;19.054;2023-12-20T00:45:37;96659.28;;;7.19;47.20
79331;BME280;68797;49.782;19.054;2023-12-20T00:48:04;96673.47;;;7.15;46.18
79331;BME280;68797;49.782;19.054;2023-12-20T00:50:31;96678.97;;;7.07;47.40
79331;BME280;68797;49.782;19.054;2023-12-20T00:52:59;96681.44;;;7.13;46.17
79331;BME280;68797;49.782;19.054;2023-12-20T00:55:27;96663.88;;;7.12;47.71
79331;BME280;68797;49.782;19.054;2023-12-20T00:57:55;96661.69;;;6.95;47.38
79331;BME280;68797;49.782;19.054;2023-12-20T01:00:21;96640.91;;;7.47;41.46
79331;BME280;68797;49.782;19.054;2023-12-20T01:02:48;96637.19;;;7.54;40.94
79331;BME280;68797;49.782;19.054;2023-12-20T01:05:18;96659.28;;;7.50;42.30
79331;BME280;68797;49.782;19.054;2023-12-20T01:07:47;96641.09;;;7.39;43.34
79331;BME280;68797;49.782;19.054;2023-12-20T01:10:14;96649.94;;;7.38;42.21
79331;BME280;68797;49.782;19.054;2023-12-20T01:12:41;96629.03;;;7.32;43.78
79331;BME280;68797;49.782;19.054;2023-12-20T01:15:10;96623.75;;;7.32;43.96
79331;BME280;68797;49.782;19.054;2023-12-20T01:17:41;96612.72;;;7.18;45.18
79331;BME280;68797;49.782;19.054;2023-12-20T01:20:08;96618.44;;;7.03;45.46
79331;BME280;68797;49.782;19.054;2023-12-20T01:22:44;96614.78;;;7.07;46.33
79331;BME280;68797;49.782;19.054;2023-12-20T01:25:13;96618.94;;;6.84;48.93
79331;BME280;68797;49.782;19.054;2023-12-20T01:27:39;96608.28;;;6.89;47.16
79331;BME280;68797;49.782;19.054;2023-12-20T01:30:07;96628.47;;;6.90;48.67
79331;BME280;68797;49.782;19.054;2023-12-20T01:32:34;96598.53;;;6.91;45.94
79331;BME280;68797;49.782;19.054;2023-12-20T01:35:02;96602.19;;;6.85;47.61
79331;BME280;68797;49.782;19.054;2023-12-20T01:37:31;96588.59;;;7.01;46.45
79331;BME280;68797;49.782;19.054;2023-12-20T01:39:58;96592.53;;;6.86;47.07
79331;BME280;68797;49.782;19.054;2023-12-20T01:42:26;96582.88;;;6.85;47.57
79331;BME280;68797;49.782;19.054;2023-12-20T01:44:54;96579.63;;;6.77;46.61
79331;BME280;68797;49.782;19.054;2023-12-20T01:47:21;96589.38;;;6.73;46.45
79331;BME280;68797;49.782;19.054;2023-12-20T01:49:50;96592.00;;;6.73;46.94
79331;BME280;68797;49.782;19.054;2023-12-20T01:52:18;96572.59;;;6.76;45.61
79331;BME280;68797;49.782;19.054;2023-12-20T01:54:47;96558.84;;;6.64;47.56
79331;BME280;68797;49.782;19.054;2023-12-20T01:57:22;96578.78;;;6.75;44.67
79331;BME280;68797;49.782;19.054;2023-12-20T01:59:49;96582.38;;;6.72;44.22
79331;BME280;68797;49.782;19.054;2023-12-20T02:02:28;96562.94;;;6.75;43.67
79331;BME280;68797;49.782;19.054;2023-12-20T02:04:58;96571.16;;;6.65;44.70
79331;BME280;68797;49.782;19.054;2023-12-20T02:07:32;96573.44;;;6.76;41.37
79331;BME280;68797;49.782;19.054;2023-12-20T02:10:03;96527.41;;;6.89;41.62
79331;BME280;68797;49.782;19.054;2023-12-20T02:12:31;96526.00;;;6.76;43.51
79331;BME280;68797;49.782;19.054;2023-12-20T02:14:59;96527.25;;;6.63;42.18
79331;BME280;68797;49.782;19.054;2023-12-20T02:17:27;96535.38;;;6.86;41.23
79331;BME280;68797;49.782;19.054;2023-12-20T02:19:56;96523.75;;;6.93;39.35
79331;BME280;68797;49.782;19.054;2023-12-20T02:22:23;96525.34;;;6.99;39.60
79331;BME280;68797;49.782;19.054;2023-12-20T02:24:50;96535.81;;;7.02;40.14
79331;BME280;68797;49.782;19.054;2023-12-20T02:27:19;96541.25;;;6.96;39.89
79331;BME280;68797;49.782;19.054;2023-12-20T02:29:47;96533.88;;;7.07;41.18
79331;BME280;68797;49.782;19.054;2023-12-20T02:32:19;96548.41;;;6.92;42.26
79331;BME280;68797;49.782;19.054;2023-12-20T02:34:49;96538.97;;;6.84;42.87
79331;BME280;68797;49.782;19.054;2023-12-20T02:37:17;96524.19;;;6.78;42.33
79331;BME280;68797;49.782;19.054;2023-12-20T02:39:44;96531.81;;;6.58;44.25
79331;BME280;68797;49.782;19.054;2023-12-20T02:42:11;96534.34;;;6.61;44.50
79331;BME280;68797;49.782;19.054;2023-12-20T02:44:38;96520.78;;;6.44;46.10
79331;BME280;68797;49.782;19.054;2023-12-20T02:47:14;96512.22;;;6.35;47.28
79331;BME280;68797;49.782;19.054;2023-12-20T02:49:42;96514.78;;;6.38;46.80
79331;BME280;68797;49.782;19.054;2023-12-20T02:52:10;96513.34;;;6.27;47.78
79331;BME280;68797;49.782;19.054;2023-12-20T02:54:37;96496.06;;;6.48;45.75
79331;BME280;68797;49.782;19.054;2023-12-20T02:57:07;96512.50;;;6.57;46.32
79331;BME280;68797;49.782;19.054;2023-12-20T02:59:34;96505.81;;;6.75;43.89
79331;BME280;68797;49.782;19.054;2023-12-20T03:02:04;96510.06;;;6.81;45.63
79331;BME280;68797;49.782;19.054;2023-12-20T03:04:31;96522.06;;;6.91;42.91
79331;BME280;68797;49.782;19.054;2023-12-20T03:07:00;96500.81;;;6.95;43.50
79331;BME280;68797;49.782;19.054;2023-12-20T03:09:26;96490.53;;;6.88;44.44
79331;BME280;68797;49.782;19.054;2023-12-20T03:11:54;96486.22;;;6.84;44.94
79331;BME280;68797;49.782;19.054;2023-12-20T03:14:20;96493.28;;;6.83;45.50
79331;BME280;68797;49.782;19.054;2023-12-20T03:16:51;96512.50;;;6.87;45.29
79331;BME280;68797;49.782;19.054;2023-12-20T03:19:20;96495.91;;;6.83;45.66
79331;BME280;68797;49.782;19.054;2023-12-20T03:21:48;96487.69;;;6.94;45.01
79331;BME280;68797;49.782;19.054;2023-12-20T03:24:16;96495.69;;;6.91;44.06
79331;BME280;68797;49.782;19.054;2023-12-20T03:27:04;96508.66;;;6.98;44.71
79331;BME280;68797;49.782;19.054;2023-12-20T03:29:31;96491.28;;;7.19;40.10
79331;BME280;68797;49.782;19.054;2023-12-20T03:32:01;96506.09;;;7.25;42.89
79331;BME280;68797;49.782;19.054;2023-12-20T03:34:28;96504.25;;;7.27;44.46
79331;BME280;68797;49.782;19.054;2023-12-20T03:36:59;96510.84;;;7.14;44.56
79331;BME280;68797;49.782;19.054;2023-12-20T03:39:25;96498.56;;;7.13;44.83
79331;BME280;68797;49.782;19.054;2023-12-20T03:41:52;96502.75;;;7.18;44.26
79331;BME280;68797;49.782;19.054;2023-12-20T03:44:20;96491.47;;;7.15;44.24
79331;BME280;68797;49.782;19.054;2023-12-20T03:46:48;96493.47;;;7.07;45.10
79331;BME280;68797;49.782;19.054;2023-12-20T03:49:18;96496.56;;;7.21;41.40
79331;BME280;68797;49.782;19.054;2023-12-20T03:51:45;96501.28;;;7.10;44.09
79331;BME280;68797;49.782;19.054;2023-12-20T03:54:13;96481.81;;;7.14;45.00
79331;BME280;68797;49.782;19.054;2023-12-20T03:56:43;96489.84;;;7.09;44.61
79331;BME280;68797;49.782;19.054;2023-12-20T03:59:10;96492.47;;;7.11;44.63
79331;BME280;68797;49.782;19.054;2023-12-20T04:01:37;96496.91;;;7.09;44.80
79331;BME280;68797;49.782;19.054;2023-12-20T04:04:06;96507.50;;;7.07;46.73
79331;BME280;68797;49.782;19.054;2023-12-20T04:06:34;96497.28;;;6.96;47.33
79331;BME280;68797;49.782;19.054;2023-12-20T04:09:01;96500.28;;;6.84;50.24
79331;BME280;68797;49.782;19.054;2023-12-20T04:11:32;96512.81;;;6.76;52.89
79331;BME280;68797;49.782;19.054;2023-12-20T04:13:59;96498.78;;;6.76;49.72
79331;BME280;68797;49.782;19.054;2023-12-20T04:16:28;96508.13;;;6.87;49.72
79331;BME280;68797;49.782;19.054;2023-12-20T04:18:54;96496.03;;;6.80;55.43
79331;BME280;68797;49.782;19.054;2023-12-20T04:21:21;96499.19;;;6.62;57.42
79331;BME280;68797;49.782;19.054;2023-12-20T04:23:48;96495.22;;;6.47;61.79
79331;BME280;68797;49.782;19.054;2023-12-20T04:26:19;96502.66;;;6.33;65.88
79331;BME280;68797;49.782;19.054;2023-12-20T04:28:46;96477.41;;;6.24;67.65
79331;BME280;68797;49.782;19.054;2023-12-20T04:31:16;96490.63;;;6.23;65.15
79331;BME280;68797;49.782;19.054;2023-12-20T04:33:45;96483.84;;;6.14;70.59
79331;BME280;68797;49.782;19.054;2023-12-20T04:36:12;96489.19;;;6.11;72.75
79331;BME280;68797;49.782;19.054;2023-12-20T04:38:40;96486.66;;;6.06;76.33
79331;BME280;68797;49.782;19.054;2023-12-20T04:41:08;96473.41;;;6.09;76.89
79331;BME280;68797;49.782;19.054;2023-12-20T04:43:36;96472.69;;;6.04;79.91
79331;BME280;68797;49.782;19.054;2023-12-20T04:46:03;96458.69;;;6.02;79.58
79331;BME280;68797;49.782;19.054;2023-12-20T04:48:31;96477.59;;;5.82;83.74
79331;BME280;68797;49.782;19.054;2023-12-20T04:50:59;96480.94;;;5.91;85.83
79331;BME280;68797;49.782;19.054;2023-12-20T04:53:29;96480.25;;;5.82;79.05
79331;BME280;68797;49.782;19.054;2023-12-20T04:55:55;96483.91;;;5.77;80.56
79331;BME280;68797;49.782;19.054;2023-12-20T04:58:22;96475.53;;;5.61;85.88
79331;BME280;68797;49.782;19.054;2023-12-20T05:01:01;96465.06;;;5.58;86.56
79331;BME280;68797;49.782;19.054;2023-12-20T05:03:27;96462.63;;;5.50;87.01
79331;BME280;68797;49.782;19.054;2023-12-20T05:05:56;96458.19;;;5.52;88.03
79331;BME280;68797;49.782;19.054;2023-12-20T05:08:28;96443.63;;;5.39;88.30
79331;BME280;68797;49.782;19.054;2023-12-20T05:10:54;96435.84;;;5.35;89.29
79331;BME280;68797;49.782;19.054;2023-12-20T05:13:21;96434.94;;;5.36;88.14
79331;BME280;68797;49.782;19.054;2023-12-20T05:15:53;96430.41;;;5.41;85.15
79331;BME280;68797;49.782;19.054;2023-12-20T05:18:22;96448.97;;;5.36;87.90
79331;BME280;68797;49.782;19.054;2023-12-20T05:20:53;96450.94;;;5.27;87.65
79331;BME280;68797;49.782;19.054;2023-12-20T05:23:20;96451.81;;;5.27;88.65
79331;BME280;68797;49.782;19.054;2023-12-20T05:25:50;96453.69;;;5.22;89.48
79331;BME280;68797;49.782;19.054;2023-12-20T05:28:18;96444.03;;;5.22;88.99
79331;BME280;68797;49.782;19.054;2023-12-20T05:30:46;96442.09;;;5.29;88.58
79331;BME280;68797;49.782;19.054;2023-12-20T05:33:14;96444.88;;;5.24;90.95
79331;BME280;68797;49.782;19.054;2023-12-20T05:35:43;96449.47;;;5.15;91.43
79331;BME280;68797;49.782;19.054;2023-12-20T05:38:12;96447.31;;;5.31;92.06
79331;BME280;68797;49.782;19.054;2023-12-20T05:40:39;96452.59;;;5.31;92.93
79331;BME280;68797;49.782;19.054;2023-12-20T05:43:07;96437.91;;;5.22;95.20
79331;BME280;68797;49.782;19.054;2023-12-20T05:45:34;96440.72;;;5.14;96.42
79331;BME280;68797;49.782;19.054;2023-12-20T05:48:02;96439.84;;;5.14;97.93
79331;BME280;68797;49.782;19.054;2023-12-20T05:50:30;96446.81;;;5.16;98.03
79331;BME280;68797;49.782;19.054;2023-12-20T05:52:59;96419.44;;;5.25;98.10
79331;BME280;68797;49.782;19.054;2023-12-20T05:55:25;96419.72;;;5.13;100.00
79331;BME280;68797;49.782;19.054;2023-12-20T05:57:53;96423.78;;;5.26;98.20
79331;BME280;68797;49.782;19.054;2023-12-20T06:00:19;96435.72;;;5.39;99.22
79331;BME280;68797;49.782;19.054;2023-12-20T06:02:46;96430.63;;;5.33;100.00
79331;BME280;68797;49.782;19.054;2023-12-20T06:05:14;96432.44;;;5.30;100.00
79331;BME280;68797;49.782;19.054;2023-12-20T06:07:43;96432.31;;;5.36;100.00
79331;BME280;68797;49.782;19.054;2023-12-20T06:10:16;96448.19;;;5.33;100.00
79331;BME280;68797;49.782;19.054;2023-12-20T06:12:44;96446.66;;;5.22;100.00
79331;BME280;68797;49.782;19.054;2023-12-20T06:15:12;96452.66;;;5.28;100.00
79331;BME280;68797;49.782;19.054;2023-12-20T06:17:41;96461.34;;;5.33;100.00
79331;BME280;68797;49.782;19.054;2023-12-20T06:20:12;96460.44;;;5.34;100.00
79331;BME280;68797;49.782;19.054;2023-12-20T06:22:39;96481.72;;;5.23;100.00
79331;BME280;68797;49.782;19.054;2023-12-20T06:25:06;96492.53;;;5.11;100.00
79331;BME280;68797;49.782;19.054;2023-12-20T06:27:36;96490.41;;;4.86;100.00
79331;BME280;68797;49.782;19.054;2023-12-20T06:30:07;96507.50;;;4.67;100.00
79331;BME280;68797;49.782;19.054;2023-12-20T06:32:40;96500.06;;;4.46;100.00
79331;BME280;68797;49.782;19.054;2023-12-20T06:35:09;96516.06;;;4.32;100.00
79331;BME280;68797;49.782;19.054;2023-12-20T06:37:41;96520.44;;;4.31;100.00
79331;BME280;68797;49.782;19.054;2023-12-20T06:40:20;96520.56;;;4.27;100.00
79331;BME280;68797;49.782;19.054;2023-12-20T06:42:47;96519.72;;;4.25;100.00
79331;BME280;68797;49.782;19.054;2023-12-20T06:45:14;96517.97;;;4.25;100.00
79331;BME280;68797;49.782;19.054;2023-12-20T06:47:44;96531.28;;;4.15;100.00
79331;BME280;68797;49.782;19.054;2023-12-20T06:50:11;96524.44;;;4.06;100.00
79331;BME280;68797;49.782;19.054;2023-12-20T06:52:37;96535.81;;;4.06;100.00
79331;BME280;68797;49.782;19.054;2023-12-20T06:55:04;96547.09;;;4.12;100.00
79331;BME280;68797;49.782;19.054;2023-12-20T06:57:32;96534.72;;;4.18;100.00
79331;BME280;68797;49.782;19.054;2023-12-20T07:00:00;96528.50;;;4.24;100.00
79331;BME280;68797;49.782;19.054;2023-12-20T07:02:27;96518.63;;;4.36;100.00
79331;BME280;68797;49.782;19.054;2023-12-20T07:04:57;96519.38;;;4.42;100.00
79331;BME280;68797;49.782;19.054;2023-12-20T07:07:24;96525.47;;;4.45;100.00
79331;BME280;68797;49.782;19.054;2023-12-20T07:09:53;96530.44;;;4.59;100.00
79331;BME280;68797;49.782;19.054;2023-12-20T07:12:20;96531.19;;;4.64;100.00
79331;BME280;68797;49.782;19.054;2023-12-20T07:14:49;96526.78;;;4.64;100.00
79331;BME280;68797;49.782;19.054;2023-12-20T07:17:15;96530.28;;;4.66;100.00
79331;BME280;68797;49.782;19.054;2023-12-20T07:19:43;96530.28;;;4.66;100.00
79331;BME280;68797;49.782;19.054;2023-12-20T07:22:10;96521.50;;;4.68;100.00
79331;BME280;68797;49.782;19.054;2023-12-20T07:24:45;96527.66;;;4.66;100.00
79331;BME280;68797;49.782;19.054;2023-12-20T07:27:14;96535.47;;;4.70;100.00
79331;BME280;68797;49.782;19.054;2023-12-20T07:29:44;96537.38;;;4.61;100.00
79331;BME280;68797;49.782;19.054;2023-12-20T07:32:10;96543.47;;;4.63;100.00
79331;BME280;68797;49.782;19.054;2023-12-20T07:34:42;96540.84;;;4.63;100.00
79331;BME280;68797;49.782;19.054;2023-12-20T07:37:08;96536.69;;;4.52;100.00
79331;BME280;68797;49.782;19.054;2023-12-20T07:39:44;96556.00;;;4.49;100.00
79331;BME280;68797;49.782;19.054;2023-12-20T07:42:10;96563.75;;;4.57;100.00
79331;BME280;68797;49.782;19.054;2023-12-20T07:44:46;96561.81;;;4.65;100.00
79331;BME280;68797;49.782;19.054;2023-12-20T07:47:13;96565.31;;;4.67;100.00
79331;BME280;68797;49.782;19.054;2023-12-20T07:49:44;96568.91;;;4.61;100.00
79331;BME280;68797;49.782;19.054;2023-12-20T07:52:12;96560.88;;;4.69;100.00
79331;BME280;68797;49.782;19.054;2023-12-20T07:54:38;96558.91;;;4.80;100.00
79331;BME280;68797;49.782;19.054;2023-12-20T07:57:06;96551.13;;;4.74;100.00
79331;BME280;68797;49.782;19.054;2023-12-20T07:59:33;96550.22;;;4.75;100.00
79331;BME280;68797;49.782;19.054;2023-12-20T08:01:59;96539.59;;;4.81;100.00
79331;BME280;68797;49.782;19.054;2023-12-20T08:04:30;96546.56;;;4.84;100.00
79331;BME280;68797;49.782;19.054;2023-12-20T08:07:01;96552.53;;;4.92;100.00
79331;BME280;68797;49.782;19.054;2023-12-20T08:09:31;96542.94;;;4.89;100.00
79331;BME280;68797;49.782;19.054;2023-12-20T08:12:04;96548.19;;;4.89;100.00
79331;BME280;68797;49.782;19.054;2023-12-20T08:14:32;96545.84;;;4.76;100.00
79331;BME280;68797;49.782;19.054;2023-12-20T08:16:59;96546.50;;;4.85;100.00
79331;BME280;68797;49.782;19.054;2023-12-20T08:19:28;96549.09;;;4.87;100.00
79331;BME280;68797;49.782;19.054;2023-12-20T08:21:55;96549.09;;;4.87;100.00
79331;BME280;68797;49.782;19.054;2023-12-20T08:24:30;96545.34;;;4.99;100.00
79331;BME280;68797;49.782;19.054;2023-12-20T08:26:57;96542.09;;;4.89;100.00
79331;BME280;68797;49.782;19.054;2023-12-20T08:29:26;96543.84;;;4.88;100.00
79331;BME280;68797;49.782;19.054;2023-12-20T08:31:53;96531.34;;;4.98;100.00
79331;BME280;68797;49.782;19.054;2023-12-20T08:34:23;96546.31;;;4.94;100.00
79331;BME280;68797;49.782;19.054;2023-12-20T08:36:53;96529.88;;;4.85;100.00
79331;BME280;68797;49.782;19.054;2023-12-20T08:39:23;96539.34;;;4.93;100.00
79331;BME280;68797;49.782;19.054;2023-12-20T08:41:51;96530.59;;;4.93;100.00
79331;BME280;68797;49.782;19.054;2023-12-20T08:44:20;96543.66;;;4.96;99.95
79331;BME280;68797;49.782;19.054;2023-12-20T08:46:50;96533.34;;;4.87;100.00
79331;BME280;68797;49.782;19.054;2023-12-20T08:49:19;96546.47;;;4.88;100.00
79331;BME280;68797;49.782;19.054;2023-12-20T08:51:49;96552.72;;;4.83;100.00
79331;BME280;68797;49.782;19.054;2023-12-20T08:54:21;96564.06;;;4.85;98.65
79331;BME280;68797;49.782;19.054;2023-12-20T08:56:48;96558.22;;;4.71;100.00
79331;BME280;68797;49.782;19.054;2023-12-20T08:59:18;96556.31;;;4.79;99.66
79331;BME280;68797;49.782;19.054;2023-12-20T09:01:48;96557.28;;;4.73;100.00
79331;BME280;68797;49.782;19.054;2023-12-20T09:04:21;96559.09;;;4.71;99.81
79331;BME280;68797;49.782;19.054;2023-12-20T09:06:51;96559.84;;;4.76;100.00
79331;BME280;68797;49.782;19.054;2023-12-20T09:09:18;96563.38;;;4.75;99.83
79331;BME280;68797;49.782;19.054;2023-12-20T09:11:45;96573.16;;;4.69;100.00
79331;BME280;68797;49.782;19.054;2023-12-20T09:14:13;96573.47;;;4.52;100.00
79331;BME280;68797;49.782;19.054;2023-12-20T09:16:43;96565.31;;;4.67;99.81
79331;BME280;68797;49.782;19.054;2023-12-20T09:19:10;96569.72;;;4.63;99.53
79331;BME280;68797;49.782;19.054;2023-12-20T09:21:36;96577.88;;;4.50;100.00
79331;BME280;68797;49.782;19.054;2023-12-20T09:24:03;96576.41;;;4.36;100.00
79331;BME280;68797;49.782;19.054;2023-12-20T09:26:32;96578.09;;;4.39;100.00
79331;BME280;68797;49.782;19.054;2023-12-20T09:29:01;96564.94;;;4.41;100.00
79331;BME280;68797;49.782;19.054;2023-12-20T09:31:28;96564.88;;;4.44;100.00
79331;BME280;68797;49.782;19.054;2023-12-20T09:33:55;96562.09;;;4.51;100.00
79331;BME280;68797;49.782;19.054;2023-12-20T09:36:22;96560.44;;;4.47;100.00
79331;BME280;68797;49.782;19.054;2023-12-20T09:38:51;96553.28;;;4.54;98.45
79331;BME280;68797;49.782;19.054;2023-12-20T09:41:18;96557.81;;;4.47;99.84
79331;BME280;68797;49.782;19.054;2023-12-20T09:43:45;96561.97;;;4.59;100.00
79331;BME280;68797;49.782;19.054;2023-12-20T09:46:16;96547.81;;;4.64;99.25
79331;BME280;68797;49.782;19.054;2023-12-20T09:48:51;96535.91;;;4.48;98.93
79331;BME280;68797;49.782;19.054;2023-12-20T09:51:19;96548.00;;;4.57;100.00
79331;BME280;68797;49.782;19.054;2023-12-20T09:53:48;96542.91;;;4.48;99.41
79331;BME280;68797;49.782;19.054;2023-12-20T09:56:16;96530.13;;;4.29;100.00
79331;BME280;68797;49.782;19.054;2023-12-20T09:58:42;96538.63;;;4.44;100.00
79331;BME280;68797;49.782;19.054;2023-12-20T10:01:09;96539.66;;;4.35;100.00
79331;BME280;68797;49.782;19.054;2023-12-20T10:03:46;96535.22;;;4.38;100.00
79331;BME280;68797;49.782;19.054;2023-12-20T10:06:12;96546.44;;;4.47;99.83
79331;BME280;68797;49.782;19.054;2023-12-20T10:08:39;96529.06;;;4.40;100.00
79331;BME280;68797;49.782;19.054;2023-12-20T10:11:07;96528.25;;;4.36;100.00
79331;BME280;68797;49.782;19.054;2023-12-20T10:13:41;96536.00;;;4.44;100.00
79331;BME280;68797;49.782;19.054;2023-12-20T10:16:11;96518.50;;;4.41;100.00
79331;BME280;68797;49.782;19.054;2023-12-20T10:18:38;96532.44;;;4.46;99.96
79331;BME280;68797;49.782;19.054;2023-12-20T10:21:06;96536.91;;;4.41;100.00
79331;BME280;68797;49.782;19.054;2023-12-20T10:23:34;96541.31;;;4.39;97.78
79331;BME280;68797;49.782;19.054;2023-12-20T10:26:01;96529.91;;;4.40;98.69
79331;BME280;68797;49.782;19.054;2023-12-20T10:28:34;96538.50;;;4.50;99.61
79331;BME280;68797;49.782;19.054;2023-12-20T10:31:01;96522.91;;;4.41;99.19
79331;BME280;68797;49.782;19.054;2023-12-20T10:33:31;96531.66;;;4.41;99.71
79331;BME280;68797;49.782;19.054;2023-12-20T10:36:01;96537.09;;;4.30;98.85
79331;BME280;68797;49.782;19.054;2023-12-20T10:38:29;96534.25;;;4.44;99.44
79331;BME280;68797;49.782;19.054;2023-12-20T10:40:57;96534.13;;;4.49;99.75
79331;BME280;68797;49.782;19.054;2023-12-20T10:43:30;96541.22;;;4.45;100.00
79331;BME280;68797;49.782;19.054;2023-12-20T10:45:58;96523.72;;;4.44;99.53
79331;BME280;68797;49.782;19.054;2023-12-20T10:48:27;96539.59;;;4.38;100.00
79331;BME280;68797;49.782;19.054;2023-12-20T10:50:57;96507.97;;;4.43;99.88
79331;BME280;68797;49.782;19.054;2023-12-20T10:53:25;96520.38;;;4.36;98.94
79331;BME280;68797;49.782;19.054;2023-12-20T10:55:52;96532.81;;;4.26;99.00
79331;BME280;68797;49.782;19.054;2023-12-20T10:58:24;96535.59;;;4.17;100.00
79331;BME280;68797;49.782;19.054;2023-12-20T11:01:00;96533.75;;;4.24;100.00
79331;BME280;68797;49.782;19.054;2023-12-20T11:03:35;96525.88;;;4.24;100.00
79331;BME280;68797;49.782;19.054;2023-12-20T11:12:13;96526.81;;;4.20;100.00
79331;BME280;68797;49.782;19.054;2023-12-20T11:14:46;96536.47;;;4.18;100.00
79331;BME280;68797;49.782;19.054;2023-12-20T11:17:13;96532.28;;;4.07;100.00
79331;BME280;68797;49.782;19.054;2023-12-20T11:22:27;96528.84;;;4.04;100.00
79331;BME280;68797;49.782;19.054;2023-12-20T11:25:13;96521.97;;;3.97;100.00
79331;BME280;68797;49.782;19.054;2023-12-20T11:27:41;96526.41;;;3.95;100.00
79331;BME280;68797;49.782;19.054;2023-12-20T11:30:14;96524.88;;;3.82;100.00
79331;BME280;68797;49.782;19.054;2023-12-20T11:32:42;96516.16;;;3.81;100.00
79331;BME280;68797;49.782;19.054;2023-12-20T11:37:38;96532.59;;;3.91;100.00
79331;BME280;68797;49.782;19.054;2023-12-20T11:40:07;96525.69;;;3.85;100.00
79331;BME280;68797;49.782;19.054;2023-12-20T11:42:42;96521.09;;;3.99;100.00
79331;BME280;68797;49.782;19.054;2023-12-20T11:45:19;96522.00;;;3.95;100.00
79331;BME280;68797;49.782;19.054;2023-12-20T11:47:51;96514.91;;;4.02;100.00
79331;BME280;68797;49.782;19.054;2023-12-20T11:50:23;96516.59;;;4.04;100.00
79331;BME280;68797;49.782;19.054;2023-12-20T11:52:52;96512.13;;;4.09;100.00
79331;BME280;68797;49.782;19.054;2023-12-20T11:55:23;96512.16;;;4.08;100.00
79331;BME280;68797;49.782;19.054;2023-12-20T11:57:51;96501.94;;;3.93;100.00
79331;BME280;68797;49.782;19.054;2023-12-20T12:00:19;96507.34;;;3.84;100.00
79331;BME280;68797;49.782;19.054;2023-12-20T12:03:01;96515.09;;;3.91;100.00
79331;BME280;68797;49.782;19.054;2023-12-20T12:05:30;96511.41;;;4.01;100.00
79331;BME280;68797;49.782;19.054;2023-12-20T12:07:59;96508.75;;;4.03;100.00
79331;BME280;68797;49.782;19.054;2023-12-20T12:10:34;96514.81;;;4.06;100.00
79331;BME280;68797;49.782;19.054;2023-12-20T12:13:03;96518.25;;;4.08;100.00
79331;BME280;68797;49.782;19.054;2023-12-20T12:15:38;96507.75;;;4.08;100.00
79331;BME280;68797;49.782;19.054;2023-12-20T12:18:08;96516.59;;;4.04;100.00
79331;BME280;68797;49.782;19.054;2023-12-20T12:20:38;96528.16;;;3.94;100.00
79331;BME280;68797;49.782;19.054;2023-12-20T12:23:07;96532.34;;;4.04;100.00
79331;BME280;68797;49.782;19.054;2023-12-20T12:25:36;96529.22;;;3.83;100.00
79331;BME280;68797;49.782;19.054;2023-12-20T12:28:07;96532.81;;;3.78;100.00
79331;BME280;68797;49.782;19.054;2023-12-20T12:30:34;96529.16;;;3.89;100.00
79331;BME280;68797;49.782;19.054;2023-12-20T12:33:02;96533.47;;;3.91;100.00
79331;BME280;68797;49.782;19.054;2023-12-20T12:35:30;96535.31;;;3.85;100.00
79331;BME280;68797;49.782;19.054;2023-12-20T12:37:58;96530.06;;;3.85;100.00
79331;BME280;68797;49.782;19.054;2023-12-20T12:40:27;96526.53;;;3.89;100.00
79331;BME280;68797;49.782;19.054;2023-12-20T12:42:54;96533.47;;;3.91;100.00
79331;BME280;68797;49.782;19.054;2023-12-20T12:45:21;96526.41;;;3.95;100.00
79331;BME280;68797;49.782;19.054;2023-12-20T12:47:52;96528.94;;;3.98;100.00
79331;BME280;68797;49.782;19.054;2023-12-20T12:50:23;96525.53;;;3.94;100.00
79331;BME280;68797;49.782;19.054;2023-12-20T12:52:51;96529.34;;;3.75;100.00
79331;BME280;68797;49.782;19.054;2023-12-20T12:55:23;96528.09;;;3.97;100.00
79331;BME280;68797;49.782;19.054;2023-12-20T12:57:51;96533.31;;;3.99;100.00
79331;BME280;68797;49.782;19.054;2023-12-20T13:00:18;96514.09;;;3.97;100.00
79331;BME280;68797;49.782;19.054;2023-12-20T13:02:47;96513.38;;;3.90;100.00
79331;BME280;68797;49.782;19.054;2023-12-20T13:05:16;96523.78;;;3.95;100.00
79331;BME280;68797;49.782;19.054;2023-12-20T13:07:49;96513.56;;;3.79;100.00
79331;BME280;68797;49.782;19.054;2023-12-20T13:10:17;96518.50;;;3.96;100.00
79331;BME280;68797;49.782;19.054;2023-12-20T13:12:44;96521.94;;;4.00;100.00
79331;BME280;68797;49.782;19.054;2023-12-20T13:15:13;96516.63;;;4.03;100.00